createdAt,value
2019-02-17T00:00:32.838Z,38.30
2019-02-17T00:05:34.328Z,38.30
2019-02-17T00:10:35.708Z,38.00
2019-02-17T00:15:37.184Z,38.10
2019-02-17T00:20:38.720Z,38.00
2019-02-17T00:25:40.064Z,38.00
2019-02-17T00:30:41.407Z,38.30
2019-02-17T00:35:42.790Z,38.20
2019-02-17T00:40:44.193Z,38.00
2019-02-17T00:45:45.627Z,37.90
2019-02-17T00:50:47.016Z,38.30
2019-02-17T00:55:48.358Z,38.00
2019-02-17T01:00:50.776Z,38.20
2019-02-17T01:05:52.215Z,38.00
2019-02-17T01:10:53.639Z,38.00
2019-02-17T01:15:55.040Z,38.30
2019-02-17T01:20:56.470Z,38.20
2019-02-17T01:25:57.877Z,38.10
2019-02-17T01:30:59.268Z,38.30
2019-02-17T01:36:00.599Z,38.30
2019-02-17T01:41:02.175Z,38.20
2019-02-17T01:46:03.565Z,38.30
2019-02-17T01:51:04.999Z,38.20
2019-02-17T01:56:06.404Z,38.30
2019-02-17T02:01:07.726Z,38.40
2019-02-17T02:06:09.198Z,38.40
2019-02-17T02:11:10.586Z,38.30
2019-02-17T02:16:11.997Z,38.30
2019-02-17T02:21:13.412Z,38.30
2019-02-17T02:26:14.774Z,38.30
2019-02-17T02:31:16.105Z,38.40
2019-02-17T02:36:17.507Z,38.60
2019-02-17T02:41:18.843Z,38.50
2019-02-17T02:46:20.239Z,38.30
2019-02-17T02:51:21.666Z,38.40
2019-02-17T02:56:24.098Z,38.50
2019-02-17T03:01:25.534Z,38.30
2019-02-17T03:06:37.629Z,38.20
2019-02-17T03:11:39.013Z,38.40
2019-02-17T03:16:40.410Z,38.50
2019-02-17T03:21:41.840Z,38.30
2019-02-17T03:26:43.330Z,38.30
2019-02-17T03:31:44.655Z,39.00
2019-02-17T03:36:46.063Z,38.40
2019-02-17T03:41:47.398Z,38.60
2019-02-17T03:46:48.803Z,38.50
2019-02-17T03:51:50.322Z,38.60
2019-02-17T03:56:51.727Z,38.30
2019-02-17T04:01:53.056Z,38.50
2019-02-17T04:06:55.514Z,38.40
2019-02-17T04:11:56.922Z,38.40
2019-02-17T04:16:58.315Z,38.40
2019-02-17T04:21:59.645Z,38.40
2019-02-17T04:27:01.036Z,38.60
2019-02-17T04:32:02.391Z,38.60
2019-02-17T04:37:03.730Z,38.70
2019-02-17T04:42:05.122Z,38.60
2019-02-17T04:47:06.461Z,38.50
2019-02-17T04:52:07.859Z,38.60
2019-02-17T04:57:09.186Z,38.60
2019-02-17T05:02:10.783Z,38.70
2019-02-17T05:07:12.146Z,38.70
2019-02-17T05:12:13.523Z,38.80
2019-02-17T05:17:15.086Z,38.90
2019-02-17T05:22:16.402Z,38.50
2019-02-17T05:27:17.893Z,38.80
2019-02-17T05:32:19.246Z,38.50
2019-02-17T05:37:20.598Z,39.50
2019-02-17T05:42:21.972Z,38.60
2019-02-17T05:47:23.372Z,38.60
2019-02-17T05:52:24.824Z,38.50
2019-02-17T05:57:26.309Z,38.70
2019-02-17T06:02:27.669Z,38.70
2019-02-17T06:07:29.041Z,38.70
2019-02-17T06:12:30.464Z,38.70
2019-02-17T06:17:32.890Z,38.50
2019-02-17T06:22:34.322Z,38.80
2019-02-17T06:27:35.719Z,38.70
2019-02-17T06:32:37.152Z,38.70
2019-02-17T06:37:38.535Z,38.70
2019-02-17T06:42:39.907Z,38.70
2019-02-17T06:47:41.287Z,38.70
2019-02-17T06:52:42.717Z,38.80
2019-02-17T06:57:44.115Z,38.40
2019-02-17T07:02:45.464Z,38.50
2019-02-17T07:07:47.039Z,38.30
2019-02-17T07:12:48.581Z,38.70
2019-02-17T07:17:49.974Z,38.50
2019-02-17T07:22:51.407Z,38.60
2019-02-17T07:27:53.826Z,38.70
2019-02-17T07:32:55.179Z,38.70
2019-02-17T07:37:56.670Z,38.60
2019-02-17T07:42:59.121Z,38.70
2019-02-17T07:48:00.514Z,39.00
2019-02-17T07:53:01.878Z,39.10
2019-02-17T07:58:04.349Z,38.70
2019-02-17T08:03:06.866Z,38.80
2019-02-17T08:08:08.294Z,39.00
2019-02-17T08:13:09.694Z,39.30
2019-02-17T08:18:11.127Z,39.20
2019-02-17T08:23:13.129Z,39.10
2019-02-17T08:28:14.487Z,39.20
2019-02-17T08:33:15.834Z,39.50
2019-02-17T08:38:17.225Z,39.40
2019-02-17T08:43:18.554Z,39.20
2019-02-17T08:48:19.963Z,39.00
2019-02-17T08:53:21.429Z,39.40
2019-02-17T08:58:22.927Z,39.70
2019-02-17T09:03:24.349Z,39.60
2019-02-17T09:08:25.700Z,39.20
2019-02-17T09:13:27.139Z,39.30
2019-02-17T09:18:28.545Z,39.30
2019-02-17T09:23:30.265Z,39.10
2019-02-17T09:28:31.878Z,38.80
2019-02-17T09:33:33.323Z,38.50
2019-02-17T09:38:34.722Z,38.50
2019-02-17T09:43:36.158Z,38.30
2019-02-17T09:48:37.551Z,38.30
2019-02-17T09:53:38.898Z,37.70
2019-02-17T09:58:40.333Z,37.80
2019-02-17T10:03:41.751Z,37.90
2019-02-17T10:08:43.229Z,38.10
2019-02-17T10:13:44.677Z,37.70
2019-02-17T10:18:46.141Z,38.30
2019-02-17T10:23:47.476Z,37.10
2019-02-17T10:28:48.885Z,37.60
2019-02-17T10:33:50.540Z,35.10
2019-02-17T10:38:51.915Z,34.10
2019-02-17T10:43:53.958Z,35.00
2019-02-17T10:48:55.466Z,35.20
2019-02-17T10:53:56.909Z,34.10
2019-02-17T10:58:58.286Z,33.70
2019-02-17T11:04:04.893Z,34.20
2019-02-17T11:09:09.579Z,34.70
2019-02-17T11:14:11.051Z,34.90
2019-02-17T11:19:12.515Z,33.90
2019-02-17T11:24:13.888Z,33.10
2019-02-17T11:29:15.462Z,32.30
2019-02-17T11:34:17.449Z,32.20
2019-02-17T11:39:19.125Z,32.20
2019-02-17T11:44:20.576Z,32.10
2019-02-17T11:49:21.982Z,31.70
2019-02-17T11:54:23.417Z,31.10
2019-02-17T11:59:24.846Z,31.30
2019-02-17T12:04:26.230Z,30.90
2019-02-17T12:09:27.631Z,31.10
2019-02-17T12:14:31.092Z,31.70
2019-02-17T12:19:32.471Z,32.20
2019-02-17T12:24:35.746Z,32.60
2019-02-17T12:29:39.062Z,32.70
2019-02-17T12:34:40.488Z,32.80
2019-02-17T12:39:41.915Z,32.90
2019-02-17T12:44:44.375Z,31.50
2019-02-17T12:49:45.807Z,30.20
2019-02-17T12:54:47.272Z,30.20
2019-02-17T12:59:48.605Z,30.40
2019-02-17T13:04:49.990Z,30.90
2019-02-17T13:09:51.334Z,31.40
2019-02-17T13:14:52.722Z,31.90
2019-02-17T13:19:54.067Z,32.30
2019-02-17T13:24:55.466Z,32.70
2019-02-17T13:29:56.888Z,33.30
2019-02-17T13:34:58.289Z,33.30
2019-02-17T13:40:00.675Z,33.40
2019-02-17T13:45:03.780Z,33.50
2019-02-17T13:50:12.342Z,33.60
2019-02-17T13:55:13.749Z,34.00
2019-02-17T14:00:17.524Z,33.80
2019-02-17T14:05:19.044Z,34.20
2019-02-17T14:10:20.411Z,34.10
2019-02-17T14:15:21.798Z,34.40
2019-02-17T14:20:23.125Z,34.30
2019-02-17T14:25:25.549Z,34.70
2019-02-17T14:30:30.310Z,34.40
2019-02-17T14:35:32.368Z,34.30
2019-02-17T14:40:33.728Z,34.50
2019-02-17T14:45:35.130Z,34.60
2019-02-17T14:50:36.545Z,34.50
2019-02-17T14:55:37.930Z,35.20
2019-02-17T15:00:40.319Z,34.60
2019-02-17T15:05:41.755Z,34.40
2019-02-17T15:10:44.174Z,34.70
2019-02-17T15:15:45.607Z,34.70
2019-02-17T15:20:46.997Z,34.90
2019-02-17T15:25:49.359Z,34.90
2019-02-17T15:30:50.752Z,35.00
2019-02-17T15:35:53.247Z,34.90
2019-02-17T15:40:54.579Z,35.20
2019-02-17T15:45:55.959Z,35.10
2019-02-17T15:51:06.216Z,35.10
2019-02-17T15:56:02.727Z,35.10
2019-02-17T16:01:05.286Z,35.40
2019-02-17T16:06:06.631Z,35.60
2019-02-17T16:11:08.115Z,35.30
2019-02-17T16:16:10.506Z,35.40
2019-02-17T16:21:11.937Z,35.70
2019-02-17T16:26:13.955Z,35.70
2019-02-17T16:31:15.434Z,35.60
2019-02-17T16:36:16.892Z,35.80
2019-02-17T16:41:18.338Z,35.60
2019-02-17T16:46:20.737Z,35.80
2019-02-17T16:51:22.173Z,35.80
2019-02-17T16:56:24.600Z,35.80
2019-02-17T17:01:26.027Z,35.90
2019-02-17T17:06:27.499Z,36.00
2019-02-17T17:11:28.858Z,35.90
2019-02-17T17:16:30.256Z,36.60
2019-02-17T17:21:31.582Z,36.00
2019-02-17T17:26:34.002Z,36.10
2019-02-17T17:31:36.513Z,36.10
2019-02-17T17:36:37.938Z,36.10
2019-02-17T17:41:39.374Z,36.00
2019-02-17T17:46:40.769Z,36.10
2019-02-17T17:51:42.161Z,36.20
2019-02-17T17:56:44.538Z,36.20
2019-02-17T18:01:45.879Z,36.20
2019-02-17T18:06:47.273Z,36.20
2019-02-17T18:11:48.706Z,36.20
2019-02-17T18:16:50.155Z,36.30
2019-02-17T18:21:51.566Z,36.20
2019-02-17T18:26:52.970Z,36.10
2019-02-17T18:31:54.378Z,36.30
2019-02-17T18:36:55.791Z,36.00
2019-02-17T18:41:58.150Z,36.30
2019-02-17T18:46:59.479Z,36.10
2019-02-17T18:52:00.877Z,36.10
2019-02-17T18:57:08.176Z,36.10
2019-02-17T19:02:05.572Z,36.00
2019-02-17T19:07:06.999Z,36.20
2019-02-17T19:12:08.380Z,36.10
2019-02-17T19:17:09.715Z,36.10
2019-02-17T19:22:11.068Z,36.00
2019-02-17T19:27:12.446Z,36.10
2019-02-17T19:32:14.182Z,36.20
2019-02-17T19:37:15.592Z,36.30
2019-02-17T19:42:17.004Z,36.30
2019-02-17T19:47:18.335Z,36.40
2019-02-17T19:52:19.718Z,36.50
2019-02-17T19:57:21.154Z,36.60
2019-02-17T20:02:24.529Z,36.80
2019-02-17T20:07:25.914Z,36.70
2019-02-17T20:12:28.241Z,36.60
2019-02-17T20:17:30.306Z,36.60
2019-02-17T20:22:31.880Z,36.40
2019-02-17T20:27:33.219Z,36.60
2019-02-17T20:32:34.594Z,36.60
2019-02-17T20:37:36.077Z,36.50
2019-02-17T20:42:37.520Z,36.50
2019-02-17T20:47:39.012Z,36.50
2019-02-17T20:52:40.343Z,36.40
2019-02-17T20:57:41.869Z,36.50
2019-02-17T21:02:43.278Z,36.40
2019-02-17T21:07:44.670Z,36.40
2019-02-17T21:12:46.037Z,36.50
2019-02-17T21:17:47.627Z,36.40
2019-02-17T21:22:49.034Z,36.40
2019-02-17T21:27:50.423Z,36.40
2019-02-17T21:32:51.766Z,36.40
2019-02-17T21:37:53.161Z,36.50
2019-02-17T21:42:54.486Z,36.40
2019-02-17T21:47:55.880Z,36.40
2019-02-17T21:52:57.227Z,36.40
2019-02-17T21:57:58.614Z,36.30
2019-02-17T22:03:00.065Z,36.40
2019-02-17T22:08:01.463Z,36.30
2019-02-17T22:13:02.882Z,36.40
2019-02-17T22:18:04.272Z,36.30
2019-02-17T22:23:05.635Z,36.20
2019-02-17T22:28:06.964Z,36.20
2019-02-17T22:33:08.364Z,36.20
2019-02-17T22:38:09.710Z,36.20
2019-02-17T22:43:12.122Z,36.30
2019-02-17T22:48:13.497Z,36.10
2019-02-17T22:53:15.928Z,36.90
2019-02-17T22:58:17.329Z,36.30
2019-02-17T23:03:18.795Z,36.30
2019-02-17T23:08:20.159Z,36.70
2019-02-17T23:13:21.504Z,36.40
2019-02-17T23:18:22.893Z,36.40
2019-02-17T23:23:24.215Z,36.20
2019-02-17T23:28:25.617Z,36.20
2019-02-17T23:33:26.977Z,36.10
2019-02-17T23:38:28.459Z,36.20
2019-02-17T23:43:29.884Z,36.20
2019-02-17T23:48:31.287Z,36.20
2019-02-17T23:53:32.747Z,36.10
2019-02-17T23:58:34.114Z,36.10
